Mehmet Bey — 9HUD6 — position and weather

sailwx.info

Track history (hours):
 
Tides and Currents Weather Stations Pressure Air Temp Water Temp Dewpoint Dewpoint Depression Visibility Wind Speed Wind Dir Waves Ship Positions

Mehmet Bey

Last reported at 2016-May-24 23:12 UTC. Time now 2016-May-25 03:25 UTC.
Position N 40°58' E 028°54'.

; draft 4.9 m.

Type: Cargo ship. MMSI: 248864000.

Date/timePositionNaut miles runAvg speedWind from/ knotsBaromVisibWave heightAir tempDewpointWater temp
2016-May-24 23:12N 40°58' E 028°54'0 0.0
2016-May-24 22:24N 40°58' E 028°54'0 0.0
2016-May-24 21:30N 40°58' E 028°54'0 0.0
2016-May-24 20:18N 40°58' E 028°54'0 0.0
2016-May-24 13:18N 40°58' E 028°54'2 1.4
2016-May-24 11:32N 40°57' E 028°57'8 8.5
2016-May-24 10:32N 40°50' E 029°04'9 9.1
2016-May-24 09:33N 40°46' E 029°14'  
2016-May-21 03:32N 40°45' E 029°31'8 7.8
2016-May-21 02:33N 40°44' E 029°21'8 7.9
2016-May-21 01:32N 40°42' E 029°10'8 8.1
2016-May-21 00:33N 40°41' E 028°60'8 7.6
2016-May-20 23:33N 40°41' E 028°50'274 7.2
2016-May-19 09:28N 37°44' E 024°19'50 8.3
2016-May-19 03:31N 37°03' E 023°44'8 8.4
2016-May-19 02:32N 36°56' E 023°39'10 8.5
2016-May-19 01:24N 36°47' E 023°33'420 8.4
2016-May-16 23:33N 36°18' E 014°52'9 9.3
2016-May-16 22:33N 36°21' E 014°41'9 9.2
2016-May-16 21:33N 36°23' E 014°30'9 9.0
2016-May-16 20:34N 36°26' E 014°19'9 9.3
2016-May-16 19:34N 36°28' E 014°08'10 9.1
2016-May-16 18:30N 36°31' E 013°57'9 9.0
2016-May-16 17:33N 36°33' E 013°47'9 8.8
2016-May-16 16:33N 36°36' E 013°36'9 8.4
2016-May-16 15:33N 36°38' E 013°26'9 9.3
2016-May-16 14:34N 36°40' E 013°15'  
Track history (hours):
 
Tides and Currents Weather Stations Pressure Air Temp Water Temp Dewpoint Dewpoint Depression Visibility Wind Speed Wind Dir Waves Ship Positions

Mehmet Bey

Last reported at 2016-May-24 23:12 UTC. Time now 2016-May-25 03:25 UTC.
Position N 40°58' E 028°54'.

; draft 4.9 m.

Type: Cargo ship. MMSI: 248864000.

Date/timePositionNaut miles runAvg speedWind from/ knotsBaromVisibWave heightAir tempDewpointWater temp
2016-May-24 23:12N 40°58' E 028°54'0 0.0
2016-May-24 22:24N 40°58' E 028°54'0 0.0
2016-May-24 21:30N 40°58' E 028°54'0 0.0
2016-May-24 20:18N 40°58' E 028°54'0 0.0
2016-May-24 13:18N 40°58' E 028°54'2 1.4
2016-May-24 11:32N 40°57' E 028°57'8 8.5
2016-May-24 10:32N 40°50' E 029°04'9 9.1
2016-May-24 09:33N 40°46' E 029°14'  
2016-May-21 03:32N 40°45' E 029°31'8 7.8
2016-May-21 02:33N 40°44' E 029°21'8 7.9
2016-May-21 01:32N 40°42' E 029°10'8 8.1
2016-May-21 00:33N 40°41' E 028°60'8 7.6
2016-May-20 23:33N 40°41' E 028°50'274 7.2
2016-May-19 09:28N 37°44' E 024°19'50 8.3
2016-May-19 03:31N 37°03' E 023°44'8 8.4
2016-May-19 02:32N 36°56' E 023°39'10 8.5
2016-May-19 01:24N 36°47' E 023°33'420 8.4
2016-May-16 23:33N 36°18' E 014°52'9 9.3
2016-May-16 22:33N 36°21' E 014°41'9 9.2
2016-May-16 21:33N 36°23' E 014°30'9 9.0
2016-May-16 20:34N 36°26' E 014°19'9 9.3
2016-May-16 19:34N 36°28' E 014°08'10 9.1
2016-May-16 18:30N 36°31' E 013°57'9 9.0
2016-May-16 17:33N 36°33' E 013°47'9 8.8
2016-May-16 16:33N 36°36' E 013°36'9 8.4
2016-May-16 15:33N 36°38' E 013°26'9 9.3
2016-May-16 14:34N 36°40' E 013°15'  

Dump ship's entire track history